M/V Adamas — SXYL — position and weather

sailwx.info

Track history (hours):
 
Tides and Currents Weather Stations Pressure Air Temp Water Temp Dewpoint Dewpoint Depression Visibility Wind Speed Wind Dir Waves Ship Positions

M/V Adamas

Last reported at 2017-Nov-25 07:30 UTC. Time now 2017-Nov-25 08:00 UTC.
Position N 37°57' E 023°37'.

Length 124 m; draft 5.6 m.

Type: Cargo ship. MMSI: 240544000.

Date/timePositionNaut miles runAvg speedWind from/ knotsBaromVisibWave heightAir tempDewpointWater temp
2017-Nov-25 07:30N 37°57' E 023°37'0 0.0
2017-Nov-25 07:00N 37°57' E 023°37'0 0.0
2017-Nov-25 06:30N 37°57' E 023°37'0 0.0
2017-Nov-25 06:00N 37°57' E 023°37'2 3.8
2017-Nov-25 05:31N 37°55' E 023°36'0 0.3
2017-Nov-25 05:00N 37°55' E 023°36'2 3.1
2017-Nov-25 04:31N 37°54' E 023°37'4 7.6
2017-Nov-25 04:00N 37°50' E 023°39'4 8.8
2017-Nov-25 03:30N 37°46' E 023°42'5 9.2
2017-Nov-25 03:00N 37°42' E 023°45'4 9.0
2017-Nov-25 02:30N 37°39' E 023°48'5 9.5
2017-Nov-25 02:00N 37°35' E 023°52'5 9.4
2017-Nov-25 01:30N 37°31' E 023°56'5 9.4
2017-Nov-25 00:59N 37°28' E 023°60'5 9.5
2017-Nov-25 00:30N 37°24' E 024°03'5 9.4
2017-Nov-25 00:00N 37°21' E 024°07'5 9.1
2017-Nov-24 23:30N 37°17' E 024°11'5 9.2
2017-Nov-24 23:00N 37°14' E 024°15'5 9.3
2017-Nov-24 22:30N 37°10' E 024°18'5 9.6
2017-Nov-24 22:00N 37°07' E 024°22'5 9.3
2017-Nov-24 21:30N 37°03' E 024°26'5 9.5
2017-Nov-24 21:00N 36°59' E 024°30'5 9.6
2017-Nov-24 20:30N 36°56' E 024°34'5 9.6
2017-Nov-24 20:00N 36°52' E 024°38'4 8.8
2017-Nov-24 19:30N 36°50' E 024°43'5 9.6
2017-Nov-24 19:00N 36°50' E 024°49'5 9.5
2017-Nov-24 18:30N 36°50' E 024°55'5 9.8
2017-Nov-24 18:00N 36°50' E 025°01'5 9.7
2017-Nov-24 17:30N 36°50' E 025°07'5 9.5
2017-Nov-24 17:00N 36°50' E 025°13'2210.0
2017-Nov-24 14:51N 36°42' E 025°38'2 6.2
2017-Nov-24 14:30N 36°41' E 025°40'5 9.8
2017-Nov-24 14:00N 36°39' E 025°46'5 9.6
2017-Nov-24 13:30N 36°36' E 025°51'5 9.6
2017-Nov-24 13:00N 36°34' E 025°56'5 9.4
2017-Nov-24 12:30N 36°32' E 026°01'5 9.6
2017-Nov-24 12:00N 36°29' E 026°06'510.5
2017-Nov-24 11:30N 36°26' E 026°12'510.7
2017-Nov-24 11:00N 36°23' E 026°17'510.5
2017-Nov-24 10:30N 36°21' E 026°23'510.5
2017-Nov-24 10:00N 36°18' E 026°28'510.5
2017-Nov-24 09:30N 36°15' E 026°34'510.1
2017-Nov-24 09:00N 36°13' E 026°40'510.2
2017-Nov-24 08:30N 36°11' E 026°46'510.3
2017-Nov-24 08:00N 36°09' E 026°51'510.4
2017-Nov-24 07:30N 36°08' E 026°58'611.7
2017-Nov-24 07:00N 36°05' E 027°04'611.8
2017-Nov-24 06:30N 36°03' E 027°11'1611.5
2017-Nov-24 05:06N 35°56' E 027°29'111.2
2017-Nov-24 04:58N 35°55' E 027°31'511.0
2017-Nov-24 04:30N 35°53' E 027°36'711.6
2017-Nov-24 03:56N 35°50' E 027°43'1611.7
2017-Nov-24 02:34N 35°45' E 028°02'112.2
2017-Nov-24 02:30N 35°45' E 028°03'  
2017-Nov-18 16:54N 37°15' E 025°51'411.0
2017-Nov-18 16:31N 37°18' E 025°48'611.1
2017-Nov-18 16:00N 37°22' E 025°43'611.6
2017-Nov-18 15:31N 37°26' E 025°38'611.5
2017-Nov-18 15:01N 37°30' E 025°33'611.2
2017-Nov-18 14:31N 37°35' E 025°29'611.2
2017-Nov-18 14:00N 37°39' E 025°24'611.1
2017-Nov-18 13:31N 37°43' E 025°19'611.1
2017-Nov-18 13:00N 37°47' E 025°15'611.1
2017-Nov-18 12:30N 37°51' E 025°10'  
2017-Nov-16 02:59N 37°54' E 025°06'4 7.1
2017-Nov-16 02:25N 37°51' E 025°10'3 7.2
2017-Nov-16 02:00N 37°49' E 025°12'4 7.1
2017-Nov-16 01:30N 37°46' E 025°15'4 7.2
2017-Nov-16 01:00N 37°44' E 025°18'4 7.2
2017-Nov-16 00:30N 37°41' E 025°22'4 7.2
2017-Nov-16 00:00N 37°39' E 025°25'4 7.6
2017-Nov-15 23:30N 37°36' E 025°28'4 7.7
2017-Nov-15 23:00N 37°33' E 025°31'4 8.0
2017-Nov-15 22:30N 37°30' E 025°34'4 7.8
2017-Nov-15 22:00N 37°27' E 025°38'4 7.2
2017-Nov-15 21:30N 37°24' E 025°41'4 7.8
2017-Nov-15 21:00N 37°22' E 025°44'4 8.3
2017-Nov-15 20:30N 37°18' E 025°47'4 7.8
2017-Nov-15 20:00N 37°16' E 025°51'  
Track history (hours):
 
Tides and Currents Weather Stations Pressure Air Temp Water Temp Dewpoint Dewpoint Depression Visibility Wind Speed Wind Dir Waves Ship Positions

M/V Adamas

Last reported at 2017-Nov-25 07:30 UTC. Time now 2017-Nov-25 08:00 UTC.
Position N 37°57' E 023°37'.

Length 124 m; draft 5.6 m.

Type: Cargo ship. MMSI: 240544000.

Date/timePositionNaut miles runAvg speedWind from/ knotsBaromVisibWave heightAir tempDewpointWater temp
2017-Nov-25 07:30N 37°57' E 023°37'0 0.0
2017-Nov-25 07:00N 37°57' E 023°37'0 0.0
2017-Nov-25 06:30N 37°57' E 023°37'0 0.0
2017-Nov-25 06:00N 37°57' E 023°37'2 3.8
2017-Nov-25 05:31N 37°55' E 023°36'0 0.3
2017-Nov-25 05:00N 37°55' E 023°36'2 3.1
2017-Nov-25 04:31N 37°54' E 023°37'4 7.6
2017-Nov-25 04:00N 37°50' E 023°39'4 8.8
2017-Nov-25 03:30N 37°46' E 023°42'5 9.2
2017-Nov-25 03:00N 37°42' E 023°45'4 9.0
2017-Nov-25 02:30N 37°39' E 023°48'5 9.5
2017-Nov-25 02:00N 37°35' E 023°52'5 9.4
2017-Nov-25 01:30N 37°31' E 023°56'5 9.4
2017-Nov-25 00:59N 37°28' E 023°60'5 9.5
2017-Nov-25 00:30N 37°24' E 024°03'5 9.4
2017-Nov-25 00:00N 37°21' E 024°07'5 9.1
2017-Nov-24 23:30N 37°17' E 024°11'5 9.2
2017-Nov-24 23:00N 37°14' E 024°15'5 9.3
2017-Nov-24 22:30N 37°10' E 024°18'5 9.6
2017-Nov-24 22:00N 37°07' E 024°22'5 9.3
2017-Nov-24 21:30N 37°03' E 024°26'5 9.5
2017-Nov-24 21:00N 36°59' E 024°30'5 9.6
2017-Nov-24 20:30N 36°56' E 024°34'5 9.6
2017-Nov-24 20:00N 36°52' E 024°38'4 8.8
2017-Nov-24 19:30N 36°50' E 024°43'5 9.6
2017-Nov-24 19:00N 36°50' E 024°49'5 9.5
2017-Nov-24 18:30N 36°50' E 024°55'5 9.8
2017-Nov-24 18:00N 36°50' E 025°01'5 9.7
2017-Nov-24 17:30N 36°50' E 025°07'5 9.5
2017-Nov-24 17:00N 36°50' E 025°13'2210.0
2017-Nov-24 14:51N 36°42' E 025°38'2 6.2
2017-Nov-24 14:30N 36°41' E 025°40'5 9.8
2017-Nov-24 14:00N 36°39' E 025°46'5 9.6
2017-Nov-24 13:30N 36°36' E 025°51'5 9.6
2017-Nov-24 13:00N 36°34' E 025°56'5 9.4
2017-Nov-24 12:30N 36°32' E 026°01'5 9.6
2017-Nov-24 12:00N 36°29' E 026°06'510.5
2017-Nov-24 11:30N 36°26' E 026°12'510.7
2017-Nov-24 11:00N 36°23' E 026°17'510.5
2017-Nov-24 10:30N 36°21' E 026°23'510.5
2017-Nov-24 10:00N 36°18' E 026°28'510.5
2017-Nov-24 09:30N 36°15' E 026°34'510.1
2017-Nov-24 09:00N 36°13' E 026°40'510.2
2017-Nov-24 08:30N 36°11' E 026°46'510.3
2017-Nov-24 08:00N 36°09' E 026°51'510.4
2017-Nov-24 07:30N 36°08' E 026°58'611.7
2017-Nov-24 07:00N 36°05' E 027°04'611.8
2017-Nov-24 06:30N 36°03' E 027°11'1611.5
2017-Nov-24 05:06N 35°56' E 027°29'111.2
2017-Nov-24 04:58N 35°55' E 027°31'511.0
2017-Nov-24 04:30N 35°53' E 027°36'711.6
2017-Nov-24 03:56N 35°50' E 027°43'1611.7
2017-Nov-24 02:34N 35°45' E 028°02'112.2
2017-Nov-24 02:30N 35°45' E 028°03'  
2017-Nov-18 16:54N 37°15' E 025°51'411.0
2017-Nov-18 16:31N 37°18' E 025°48'611.1
2017-Nov-18 16:00N 37°22' E 025°43'611.6
2017-Nov-18 15:31N 37°26' E 025°38'611.5
2017-Nov-18 15:01N 37°30' E 025°33'611.2
2017-Nov-18 14:31N 37°35' E 025°29'611.2
2017-Nov-18 14:00N 37°39' E 025°24'611.1
2017-Nov-18 13:31N 37°43' E 025°19'611.1
2017-Nov-18 13:00N 37°47' E 025°15'611.1
2017-Nov-18 12:30N 37°51' E 025°10'  
2017-Nov-16 02:59N 37°54' E 025°06'4 7.1
2017-Nov-16 02:25N 37°51' E 025°10'3 7.2
2017-Nov-16 02:00N 37°49' E 025°12'4 7.1
2017-Nov-16 01:30N 37°46' E 025°15'4 7.2
2017-Nov-16 01:00N 37°44' E 025°18'4 7.2
2017-Nov-16 00:30N 37°41' E 025°22'4 7.2
2017-Nov-16 00:00N 37°39' E 025°25'4 7.6
2017-Nov-15 23:30N 37°36' E 025°28'4 7.7
2017-Nov-15 23:00N 37°33' E 025°31'4 8.0
2017-Nov-15 22:30N 37°30' E 025°34'4 7.8
2017-Nov-15 22:00N 37°27' E 025°38'4 7.2
2017-Nov-15 21:30N 37°24' E 025°41'4 7.8
2017-Nov-15 21:00N 37°22' E 025°44'4 8.3
2017-Nov-15 20:30N 37°18' E 025°47'4 7.8
2017-Nov-15 20:00N 37°16' E 025°51'  

Dump ship's entire track history